Fort Story, Virginia
Current Conditions -  °F | °C
As of 9:09 PM on Monday 22 Dec 2014 (Local Time) from KNTU Reporting Station
Haze Haze  
Wind Chill: 44°   Ceiling: 200
Heat Index: 48°   Visibility: 3mi
Dew Point: 46°   Wind: 9mph
Humidity: 93%   Direction: 330°NNW
Pressure: 29.99"   Gusts: NA
Location:  36.922°N, 76.0108°W
Report Text: KNTU 230209Z 33008KT 3SM BR OVC002 09/08 A2999 RMK AO2 T00890078
Loading
Personal Weather Stations






























Interactive Weather Map New forecast layout! Learn more

10-Day Weather Forecast

Advertisements
Track Severe Weather on mobile